createdAt,value
2022-08-22T00:02:00.249Z,15.22
2022-08-22T00:02:59.383Z,15.59
2022-08-22T00:03:00.887Z,18.84
2022-08-22T00:05:06.301Z,15.51
2022-08-22T00:08:09.244Z,15.19
2022-08-22T00:11:16.749Z,15.44
2022-08-22T00:14:01.859Z,15.40
2022-08-22T00:16:47.044Z,15.39
2022-08-22T00:19:53.841Z,15.36
2022-08-22T00:22:51.153Z,15.35
2022-08-22T00:25:49.630Z,15.14
2022-08-22T00:28:29.113Z,15.26
2022-08-22T00:31:28.879Z,15.22
2022-08-22T00:34:13.964Z,15.21
2022-08-22T00:37:19.105Z,15.20
2022-08-22T00:40:30.863Z,15.18
2022-08-22T00:44:02.835Z,15.14
2022-08-22T00:47:09.792Z,15.11
2022-08-22T00:49:57.923Z,15.10
2022-08-22T00:53:17.401Z,15.05
2022-08-22T00:56:45.982Z,15.05
2022-08-22T01:00:00.299Z,15.06
2022-08-22T01:02:54.490Z,15.00
2022-08-22T01:05:40.382Z,15.00
2022-08-22T01:08:24.279Z,15.00
2022-08-22T01:11:24.411Z,14.99
2022-08-22T01:14:34.585Z,14.98
2022-08-22T01:18:00.508Z,14.98
2022-08-22T01:21:24.227Z,14.95
2022-08-22T01:24:59.527Z,14.95
2022-08-22T01:27:58.302Z,14.95
2022-08-22T01:31:10.568Z,14.98
2022-08-22T01:34:14.465Z,14.96
2022-08-22T01:37:01.613Z,14.76
2022-08-22T01:40:09.832Z,14.84
2022-08-22T01:42:42.714Z,14.95
2022-08-22T01:45:34.211Z,14.90
2022-08-22T01:48:42.008Z,14.75
2022-08-22T01:51:27.658Z,14.92
2022-08-22T01:54:50.086Z,14.80
2022-08-22T01:57:19.195Z,14.44
2022-08-22T02:00:05.907Z,14.82
2022-08-22T02:03:23.088Z,14.85
2022-08-22T02:06:03.292Z,14.52
2022-08-22T02:08:57.458Z,14.54
2022-08-22T02:12:22.109Z,14.38
2022-08-22T02:15:22.872Z,14.70
2022-08-22T02:18:05.442Z,14.80
2022-08-22T02:20:55.090Z,14.71
2022-08-22T02:23:46.156Z,14.75
2022-08-22T02:26:45.480Z,14.77
2022-08-22T02:29:29.554Z,14.22
2022-08-22T02:32:56.942Z,14.71
2022-08-22T02:35:33.377Z,14.73
2022-08-22T02:38:26.067Z,14.74
2022-08-22T02:41:21.922Z,14.75
2022-08-22T02:44:05.816Z,14.71
2022-08-22T02:46:49.550Z,14.63
2022-08-22T02:49:51.744Z,14.61
2022-08-22T02:52:39.448Z,14.70
2022-08-22T02:55:16.879Z,14.60
2022-08-22T02:58:12.553Z,14.68
2022-08-22T03:01:02.861Z,14.53
2022-08-22T03:03:39.365Z,14.43
2022-08-22T03:06:29.226Z,14.35
2022-08-22T03:09:23.179Z,14.29
2022-08-22T03:12:07.458Z,14.30
2022-08-22T03:14:59.066Z,14.35
2022-08-22T03:17:51.092Z,14.36
2022-08-22T03:20:41.079Z,14.39
2022-08-22T03:23:35.156Z,14.32
2022-08-22T03:26:43.842Z,14.31
2022-08-22T03:29:27.356Z,14.37
2022-08-22T03:32:23.953Z,13.98
2022-08-22T03:34:59.099Z,14.08
2022-08-22T03:37:44.150Z,14.28
2022-08-22T03:40:20.297Z,14.35
2022-08-22T03:43:21.231Z,14.11
2022-08-22T03:46:25.951Z,14.38
2022-08-22T03:49:29.961Z,14.47
2022-08-22T03:53:07.218Z,14.56
2022-08-22T03:56:22.103Z,14.59
2022-08-22T03:58:54.915Z,14.59
2022-08-22T04:02:26.196Z,14.58
2022-08-22T04:05:15.166Z,14.57
2022-08-22T04:08:05.005Z,14.63
2022-08-22T04:11:16.402Z,14.62
2022-08-22T04:14:24.121Z,14.73
2022-08-22T04:17:34.779Z,14.85
2022-08-22T04:20:16.891Z,14.89
2022-08-22T04:22:53.262Z,14.92
2022-08-22T04:25:38.780Z,14.78
2022-08-22T04:28:15.754Z,15.09
2022-08-22T04:31:08.203Z,15.06
2022-08-22T04:34:02.229Z,15.12
2022-08-22T04:36:53.555Z,15.08
2022-08-22T04:39:46.480Z,15.01
2022-08-22T04:42:38.221Z,15.00
2022-08-22T04:45:41.590Z,15.14
2022-08-22T04:48:23.577Z,15.18
2022-08-22T04:51:05.328Z,14.99
2022-08-22T04:53:48.813Z,15.14
2022-08-22T04:56:41.101Z,15.18
2022-08-22T04:59:16.485Z,15.00
2022-08-22T05:01:55.682Z,15.25
2022-08-22T05:04:47.724Z,15.13
2022-08-22T05:07:29.076Z,14.54
2022-08-22T05:10:22.551Z,15.13
2022-08-22T05:13:02.743Z,14.83
2022-08-22T05:15:38.097Z,15.16
2022-08-22T05:18:15.703Z,15.13
2022-08-22T05:20:50.126Z,15.11
2022-08-22T05:23:28.462Z,15.25
2022-08-22T05:26:03.144Z,15.14
2022-08-22T05:28:37.422Z,15.43
2022-08-22T05:31:16.006Z,15.41
2022-08-22T05:33:53.083Z,15.41
2022-08-22T05:36:32.091Z,15.50
2022-08-22T05:39:20.711Z,15.75
2022-08-22T05:41:49.984Z,15.88
2022-08-22T05:44:32.581Z,15.98
2022-08-22T05:47:06.446Z,16.01
2022-08-22T05:50:02.085Z,15.95
2022-08-22T05:52:44.164Z,15.94
2022-08-22T05:55:24.021Z,16.04
2022-08-22T05:58:03.369Z,16.09
2022-08-22T06:00:39.978Z,16.19
2022-08-22T06:03:33.986Z,16.08
2022-08-22T06:06:13.493Z,16.54
2022-08-22T06:08:55.665Z,16.42
2022-08-22T06:11:51.671Z,16.45
2022-08-22T06:14:45.157Z,16.70
2022-08-22T06:17:28.993Z,16.56
2022-08-22T06:19:56.295Z,16.60
2022-08-22T06:22:31.811Z,16.84
2022-08-22T06:25:22.835Z,16.77
2022-08-22T06:27:51.481Z,16.84
2022-08-22T06:30:20.598Z,16.93
2022-08-22T06:33:01.371Z,17.12
2022-08-22T06:36:01.537Z,17.19
2022-08-22T06:38:54.357Z,17.03
2022-08-22T06:41:28.319Z,17.28
2022-08-22T06:43:57.913Z,17.29
2022-08-22T06:46:30.799Z,17.33
2022-08-22T06:49:01.558Z,17.48
2022-08-22T06:51:30.256Z,17.47
2022-08-22T06:54:04.006Z,17.62
2022-08-22T06:56:41.164Z,17.70
2022-08-22T06:59:16.440Z,17.80
2022-08-22T07:02:04.138Z,17.86
2022-08-22T07:04:32.028Z,17.65
2022-08-22T07:07:01.661Z,17.44
2022-08-22T07:09:35.524Z,17.85
2022-08-22T07:12:14.093Z,17.90
2022-08-22T07:14:49.888Z,17.81
2022-08-22T07:17:31.148Z,17.90
2022-08-22T07:20:31.600Z,18.01
2022-08-22T07:23:34.927Z,17.91
2022-08-22T07:26:49.753Z,17.90
2022-08-22T07:29:45.928Z,17.90
2022-08-22T07:32:42.027Z,17.89
2022-08-22T07:35:17.098Z,17.98
2022-08-22T07:38:02.160Z,18.14
2022-08-22T07:40:35.382Z,18.29
2022-08-22T07:43:35.831Z,18.46
2022-08-22T07:46:31.938Z,18.33
2022-08-22T07:49:24.383Z,18.28
2022-08-22T07:51:58.849Z,18.47
2022-08-22T07:54:51.836Z,18.69
2022-08-22T07:57:37.942Z,18.73
2022-08-22T08:00:13.902Z,19.11
2022-08-22T08:02:53.779Z,19.05
2022-08-22T08:05:29.395Z,19.15
2022-08-22T08:07:58.517Z,18.95
2022-08-22T08:10:37.376Z,19.19
2022-08-22T08:13:13.083Z,19.10
2022-08-22T08:15:44.829Z,19.58
2022-08-22T08:18:21.787Z,19.79
2022-08-22T08:21:04.467Z,19.82
2022-08-22T08:23:45.121Z,20.20
2022-08-22T08:26:18.498Z,20.27
2022-08-22T08:28:53.335Z,20.77
2022-08-22T08:31:38.085Z,20.81
2022-08-22T08:34:23.697Z,21.10
2022-08-22T08:37:17.251Z,21.36
2022-08-22T08:39:56.908Z,21.31
2022-08-22T08:42:32.849Z,21.81
2022-08-22T08:45:26.132Z,22.24
2022-08-22T08:48:08.112Z,22.84
2022-08-22T08:50:56.625Z,23.50
2022-08-22T08:54:09.224Z,23.72
2022-08-22T08:57:18.667Z,23.96
2022-08-22T09:00:14.791Z,23.73
2022-08-22T09:03:31.879Z,23.52
2022-08-22T09:06:42.313Z,23.53
2022-08-22T09:09:36.133Z,23.68
2022-08-22T09:12:06.256Z,24.02
2022-08-22T09:15:00.132Z,23.87
2022-08-22T09:18:33.304Z,23.88
2022-08-22T09:21:41.278Z,23.74
2022-08-22T09:24:43.294Z,23.47
2022-08-22T09:27:37.036Z,23.53
2022-08-22T09:30:15.530Z,23.41
2022-08-22T09:33:12.567Z,23.43
2022-08-22T09:36:05.230Z,23.35
2022-08-22T09:38:59.752Z,23.29
2022-08-22T09:41:40.793Z,23.09
2022-08-22T09:44:39.429Z,22.79
2022-08-22T09:47:24.654Z,22.81
2022-08-22T09:50:17.622Z,22.47
2022-08-22T09:53:13.876Z,22.45
2022-08-22T09:55:50.203Z,22.67
2022-08-22T09:58:53.326Z,22.45
2022-08-22T10:01:42.248Z,22.43
2022-08-22T10:04:53.603Z,22.35
2022-08-22T10:07:32.296Z,22.30
2022-08-22T10:10:21.459Z,22.21
2022-08-22T10:13:04.743Z,22.40
2022-08-22T10:15:48.592Z,23.04
2022-08-22T10:18:33.118Z,23.61
2022-08-22T10:21:39.682Z,23.87
2022-08-22T10:24:31.388Z,24.27
2022-08-22T10:27:15.025Z,24.44
2022-08-22T10:30:08.833Z,25.15
2022-08-22T10:33:03.671Z,24.70
2022-08-22T10:35:44.254Z,24.15
2022-08-22T10:38:20.976Z,24.01
2022-08-22T10:41:12.293Z,24.23
2022-08-22T10:44:04.487Z,24.46
2022-08-22T10:46:47.199Z,24.50
2022-08-22T10:49:39.350Z,24.43
2022-08-22T10:52:36.403Z,24.70
2022-08-22T10:55:27.446Z,24.70
2022-08-22T10:58:19.474Z,24.53
2022-08-22T11:00:58.256Z,24.69
2022-08-22T11:03:39.987Z,24.44
2022-08-22T11:06:33.716Z,23.98
2022-08-22T11:09:11.883Z,23.63
2022-08-22T11:11:54.189Z,23.49
2022-08-22T11:14:51.728Z,23.42
2022-08-22T11:17:53.981Z,23.42
2022-08-22T11:20:53.184Z,23.63
2022-08-22T11:23:45.289Z,23.28
2022-08-22T11:26:47.397Z,23.76
2022-08-22T11:29:51.644Z,23.83
2022-08-22T11:32:44.267Z,23.76
2022-08-22T11:35:36.987Z,23.76
2022-08-22T11:38:55.024Z,23.93
2022-08-22T11:41:39.457Z,23.69
2022-08-22T11:44:50.300Z,23.66
2022-08-22T11:47:28.337Z,23.40
2022-08-22T11:50:14.641Z,23.35
2022-08-22T11:53:09.007Z,23.13
2022-08-22T11:56:13.049Z,22.79
2022-08-22T11:59:27.603Z,22.82
2022-08-22T12:02:04.844Z,22.84
2022-08-22T12:04:55.279Z,22.53
2022-08-22T12:07:39.677Z,22.66
2022-08-22T12:10:29.810Z,22.73
2022-08-22T12:13:36.103Z,22.65
2022-08-22T12:16:51.768Z,22.29
2022-08-22T12:19:33.111Z,22.37
2022-08-22T12:22:24.808Z,22.57
2022-08-22T12:25:11.551Z,22.61
2022-08-22T12:27:48.138Z,22.63
2022-08-22T12:31:03.247Z,22.49
2022-08-22T12:34:09.553Z,22.67
2022-08-22T12:37:50.325Z,22.77
2022-08-22T12:41:08.120Z,22.87
2022-08-22T12:43:56.788Z,22.71
2022-08-22T12:46:47.611Z,22.76
2022-08-22T12:49:39.382Z,22.88
2022-08-22T12:52:42.242Z,22.90
2022-08-22T12:55:55.642Z,22.74
2022-08-22T12:58:45.010Z,22.73
2022-08-22T13:01:20.048Z,22.32
2022-08-22T13:04:02.757Z,22.33
2022-08-22T13:06:36.259Z,22.75
2022-08-22T13:09:19.876Z,22.53
2022-08-22T13:12:19.965Z,22.66
2022-08-22T13:14:54.893Z,22.54
2022-08-22T13:17:25.861Z,22.22
2022-08-22T13:20:13.310Z,22.38
2022-08-22T13:22:45.690Z,22.04
2022-08-22T13:25:25.797Z,22.13
2022-08-22T13:28:11.411Z,22.17
2022-08-22T13:30:42.623Z,22.09
2022-08-22T13:33:25.980Z,22.26
2022-08-22T13:36:00.674Z,22.32
2022-08-22T13:38:38.342Z,22.20
2022-08-22T13:41:24.606Z,22.23
2022-08-22T13:44:06.865Z,22.25
2022-08-22T13:46:44.518Z,22.05
2022-08-22T13:49:44.160Z,22.03
2022-08-22T13:53:01.813Z,21.97
2022-08-22T13:55:56.868Z,21.58
2022-08-22T13:58:44.136Z,21.68
2022-08-22T14:01:59.753Z,21.79
2022-08-22T14:04:36.456Z,21.89
2022-08-22T14:07:06.246Z,21.99
2022-08-22T14:09:57.009Z,21.93
2022-08-22T14:13:07.060Z,21.94
2022-08-22T14:15:44.733Z,21.89
2022-08-22T14:18:31.642Z,22.08
2022-08-22T14:21:40.689Z,22.14
2022-08-22T14:24:25.638Z,22.19
2022-08-22T14:27:11.276Z,22.22
2022-08-22T14:29:50.760Z,22.19
2022-08-22T14:32:25.855Z,22.15
2022-08-22T14:35:04.738Z,22.02
2022-08-22T14:37:41.708Z,21.96
2022-08-22T14:40:22.685Z,22.03
2022-08-22T14:43:29.804Z,22.16
2022-08-22T14:46:10.521Z,22.31
2022-08-22T14:49:18.964Z,22.31
2022-08-22T14:52:02.220Z,22.14
2022-08-22T14:54:33.947Z,22.05
2022-08-22T14:57:12.616Z,21.86
2022-08-22T14:59:51.515Z,22.04
2022-08-22T15:02:32.400Z,22.13
2022-08-22T15:05:14.307Z,21.88
2022-08-22T15:07:42.080Z,21.77
2022-08-22T15:10:31.569Z,21.76
2022-08-22T15:13:07.979Z,21.82
2022-08-22T15:15:53.424Z,21.79
2022-08-22T15:18:35.573Z,21.81
2022-08-22T15:21:11.338Z,21.75
2022-08-22T15:23:45.396Z,21.68
2022-08-22T15:26:30.613Z,21.52
2022-08-22T15:29:22.704Z,21.59
2022-08-22T15:31:57.282Z,21.75
2022-08-22T15:34:44.259Z,21.72
2022-08-22T15:37:19.974Z,21.69
2022-08-22T15:40:11.973Z,21.55
2022-08-22T15:42:49.050Z,21.59
2022-08-22T15:45:36.073Z,21.32
2022-08-22T15:48:23.464Z,21.32
2022-08-22T15:51:09.359Z,21.29
2022-08-22T15:53:46.002Z,21.23
2022-08-22T15:56:13.848Z,21.17
2022-08-22T15:58:50.200Z,21.19
2022-08-22T16:01:25.470Z,21.23
2022-08-22T16:04:03.248Z,21.21
2022-08-22T16:06:44.590Z,21.20
2022-08-22T16:09:46.740Z,21.23
2022-08-22T16:12:44.340Z,21.19
2022-08-22T16:15:54.369Z,21.14
2022-08-22T16:18:39.301Z,21.11
2022-08-22T16:21:14.945Z,21.08
2022-08-22T16:23:51.272Z,21.07
2022-08-22T16:26:31.317Z,21.00
2022-08-22T16:29:13.630Z,21.01
2022-08-22T16:31:44.895Z,21.02
2022-08-22T16:34:18.010Z,21.01
2022-08-22T16:37:02.979Z,20.90
2022-08-22T16:39:52.349Z,20.97
2022-08-22T16:42:22.442Z,21.00
2022-08-22T16:45:17.225Z,20.81
2022-08-22T16:47:58.522Z,20.89
2022-08-22T16:50:33.912Z,20.66
2022-08-22T16:53:28.945Z,20.83
2022-08-22T16:56:22.551Z,20.82
2022-08-22T16:59:38.316Z,20.51
2022-08-22T17:02:42.022Z,20.82
2022-08-22T17:05:43.433Z,20.80
2022-08-22T17:08:39.522Z,20.63
2022-08-22T17:11:36.887Z,20.77
2022-08-22T17:14:41.407Z,20.75
2022-08-22T17:17:53.893Z,20.17
2022-08-22T17:20:23.678Z,20.68
2022-08-22T17:23:00.116Z,20.65
2022-08-22T17:26:01.142Z,20.64
2022-08-22T17:29:05.188Z,20.63
2022-08-22T17:31:45.350Z,20.58
2022-08-22T17:34:37.111Z,20.57
2022-08-22T17:37:08.288Z,20.47
2022-08-22T17:39:56.359Z,20.40
2022-08-22T17:42:35.451Z,20.35
2022-08-22T17:45:37.596Z,20.15
2022-08-22T17:48:28.633Z,20.23
2022-08-22T17:51:03.057Z,20.15
2022-08-22T17:53:37.655Z,20.04
2022-08-22T17:56:34.712Z,20.12
2022-08-22T17:59:22.345Z,20.11
2022-08-22T18:02:09.596Z,20.10
2022-08-22T18:05:06.964Z,20.10
2022-08-22T18:08:01.648Z,19.55
2022-08-22T18:10:57.704Z,20.02
2022-08-22T18:13:56.263Z,20.00
2022-08-22T18:16:53.829Z,19.94
2022-08-22T18:19:24.112Z,19.93
2022-08-22T18:22:04.279Z,19.91
2022-08-22T18:24:54.306Z,19.74
2022-08-22T18:27:35.410Z,19.67
2022-08-22T18:30:11.517Z,19.88
2022-08-22T18:32:49.707Z,19.86
2022-08-22T18:35:27.101Z,19.80
2022-08-22T18:38:22.620Z,19.79
2022-08-22T18:41:12.133Z,19.61
2022-08-22T18:43:48.715Z,19.58
2022-08-22T18:46:37.573Z,19.71
2022-08-22T18:49:20.821Z,19.71
2022-08-22T18:52:09.163Z,19.14
2022-08-22T18:54:41.938Z,19.68
2022-08-22T18:57:57.587Z,19.56
2022-08-22T19:00:37.802Z,19.62
2022-08-22T19:03:22.688Z,19.59
2022-08-22T19:06:43.276Z,19.54
2022-08-22T19:09:41.113Z,19.44
2022-08-22T19:12:46.867Z,19.40
2022-08-22T19:15:52.449Z,19.30
2022-08-22T19:18:51.076Z,19.25
2022-08-22T19:21:51.370Z,19.11
2022-08-22T19:24:27.424Z,19.16
2022-08-22T19:27:19.458Z,19.14
2022-08-22T19:29:46.793Z,19.13
2022-08-22T19:32:44.841Z,19.06
2022-08-22T19:35:21.020Z,19.07
2022-08-22T19:38:02.608Z,19.02
2022-08-22T19:40:44.917Z,18.95
2022-08-22T19:43:40.380Z,18.94
2022-08-22T19:46:12.989Z,18.96
2022-08-22T19:48:50.220Z,18.62
2022-08-22T19:51:29.080Z,18.81
2022-08-22T19:54:21.772Z,18.82
2022-08-22T19:57:06.905Z,18.78
2022-08-22T20:00:13.852Z,18.71
2022-08-22T20:03:18.517Z,18.66
2022-08-22T20:06:42.994Z,18.65
2022-08-22T20:09:52.859Z,18.03
2022-08-22T20:12:29.498Z,18.63
2022-08-22T20:14:57.522Z,18.56
2022-08-22T20:17:24.437Z,18.49
2022-08-22T20:23:11.261Z,18.37
2022-08-22T20:25:44.400Z,18.35
2022-08-22T20:28:29.627Z,18.29
2022-08-22T20:31:04.587Z,18.14
2022-08-22T20:33:42.421Z,18.11
2022-08-22T20:36:27.531Z,18.08
2022-08-22T20:39:08.668Z,17.71
2022-08-22T20:41:38.934Z,17.95
2022-08-22T20:44:21.708Z,17.86
2022-08-22T20:46:53.523Z,17.33
2022-08-22T20:49:51.883Z,17.59
2022-08-22T20:52:30.147Z,17.05
2022-08-22T20:55:12.117Z,17.55
2022-08-22T20:57:55.691Z,17.40
2022-08-22T21:00:27.448Z,17.43
2022-08-22T21:03:11.539Z,17.23
2022-08-22T21:05:44.985Z,17.45
2022-08-22T21:08:26.285Z,17.46
2022-08-22T21:11:24.734Z,17.29
2022-08-22T21:13:53.416Z,16.87
2022-08-22T21:16:31.923Z,17.26
2022-08-22T21:19:03.452Z,17.20
2022-08-22T21:21:34.115Z,17.00
2022-08-22T21:24:06.154Z,16.75
2022-08-22T21:26:47.749Z,17.05
2022-08-22T21:29:14.705Z,17.03
2022-08-22T21:31:49.156Z,17.09
2022-08-22T21:34:24.711Z,16.64
2022-08-22T21:36:57.794Z,17.13
2022-08-22T21:39:36.267Z,17.12
2022-08-22T21:42:03.478Z,17.09
2022-08-22T21:44:39.941Z,16.91
2022-08-22T21:47:30.833Z,16.96
2022-08-22T21:50:13.171Z,16.93
2022-08-22T21:52:44.722Z,16.90
2022-08-22T21:55:44.692Z,16.91
2022-08-22T21:58:34.165Z,16.93
2022-08-22T22:01:28.987Z,16.86
2022-08-22T22:03:58.943Z,16.88
2022-08-22T22:06:27.377Z,16.87
2022-08-22T22:08:55.154Z,16.69
2022-08-22T22:11:24.397Z,16.85
2022-08-22T22:13:51.648Z,16.77
2022-08-22T22:16:26.173Z,16.87
2022-08-22T22:18:54.508Z,16.89
2022-08-22T22:21:21.926Z,16.85
2022-08-22T22:23:50.642Z,16.59
2022-08-22T22:26:17.915Z,16.80
2022-08-22T22:28:48.530Z,16.58
2022-08-22T22:31:20.907Z,16.83
2022-08-22T22:33:47.996Z,16.73
2022-08-22T22:36:26.699Z,16.76
2022-08-22T22:38:55.077Z,16.70
2022-08-22T22:41:25.849Z,16.55
2022-08-22T22:43:54.752Z,16.50
2022-08-22T22:46:24.070Z,16.45
2022-08-22T22:48:51.223Z,16.40
2022-08-22T22:51:18.564Z,16.31
2022-08-22T22:53:46.147Z,16.06
2022-08-22T22:56:22.513Z,16.37
2022-08-22T22:58:59.222Z,16.36
2022-08-22T23:01:30.594Z,16.04
2022-08-22T23:04:05.419Z,16.38
2022-08-22T23:06:33.714Z,16.13
2022-08-22T23:09:02.241Z,16.33
2022-08-22T23:11:30.694Z,16.41
2022-08-22T23:13:58.047Z,16.10
2022-08-22T23:16:28.575Z,16.37
2022-08-22T23:18:56.317Z,16.38
2022-08-22T23:21:28.617Z,16.47
2022-08-22T23:23:58.715Z,16.14
2022-08-22T23:26:27.166Z,16.55
2022-08-22T23:28:55.873Z,16.48
2022-08-22T23:32:03.498Z,16.47
2022-08-22T23:34:44.058Z,16.53
2022-08-22T23:37:13.197Z,16.57
2022-08-22T23:39:41.247Z,16.59
2022-08-22T23:42:09.979Z,16.51
2022-08-22T23:44:39.801Z,16.43
2022-08-22T23:47:09.745Z,16.71
2022-08-22T23:49:39.714Z,16.74
2022-08-22T23:52:08.620Z,16.55
2022-08-22T23:54:35.958Z,16.15
2022-08-22T23:57:12.232Z,16.82
2022-08-22T23:59:47.970Z,16.75
